Time;durP1;ratioP1;P1;durP2;ratioP2;P2;SDS_P1;SDS_P2;PMS_P1;PMS_P2;Temp;Humidity;BMP_temperature;BMP_pressure;BME280_temperature;BME280_humidity;BME280_pressure;Samples;Min_cycle;Max_cycle;Signal;HPM_P1;HPM_P2
2021/05/18 00:00:43;;;;;;;2.17;0.30;;;11.10;72.20;;;9.72;69.49;95603.84;5010814;28;20038;-73
2021/05/18 00:03:09;;;;;;;1.35;0.40;;;11.10;72.20;;;9.71;70.64;95610.91;5013481;28;20057;-72
2021/05/18 00:05:37;;;;;;;1.15;0.35;;;11.10;72.50;;;9.71;69.97;95618.78;4995932;28;20034;-72
2021/05/18 00:08:06;;;;;;;0.60;0.35;;;11.10;72.90;;;9.71;69.97;95616.16;5015021;28;20030;-71
2021/05/18 00:13:25;;;;;;;3.00;0.50;;;11.10;73.30;;;9.69;70.36;95610.31;5030041;28;20084;-73
2021/05/18 00:15:54;;;;;;;1.30;0.40;;;11.10;73.40;;;9.70;71.49;95609.28;4998732;28;20029;-73
2021/05/18 00:18:20;;;;;;;0.60;0.30;;;11.10;73.10;;;9.70;70.77;95622.44;5014034;28;20044;-72
2021/05/18 00:20:45;;;;;;;2.20;0.30;;;11.10;73.10;;;9.71;70.19;95618.78;5014532;28;20065;-73
2021/05/18 00:23:11;;;;;;;1.20;0.35;;;11.10;73.10;;;9.70;70.14;95617.16;5030936;28;20060;-73
2021/05/18 00:25:38;;;;;;;2.10;0.40;;;11.00;73.00;;;9.69;70.89;95620.81;5031068;28;20034;-72
2021/05/18 00:28:04;;;;;;;0.75;0.35;;;11.10;73.20;;;9.68;71.38;95627.06;5014325;28;20030;-72
2021/05/18 00:30:30;;;;;;;1.05;0.30;;;11.10;73.10;;;9.67;70.81;95622.00;5030507;28;21888;-72
2021/05/18 00:32:55;;;;;;;1.10;0.38;;;11.00;73.10;;;9.66;70.44;95621.19;5031162;28;20445;-72
2021/05/18 00:35:21;;;;;;;1.73;0.38;;;11.00;73.20;;;9.67;71.25;95628.06;5014032;28;20056;-73
2021/05/18 00:37:47;;;;;;;0.85;0.40;;;11.10;72.90;;;9.69;71.35;95627.88;5014528;28;20052;-72
2021/05/18 00:40:16;;;;;;;0.75;0.52;;;11.10;73.00;;;9.69;71.12;95627.88;5013656;28;20042;-72
2021/05/18 00:42:54;;;;;;;1.17;0.30;;;11.10;72.90;;;9.69;72.18;95626.06;5014441;28;20519;-72
2021/05/18 00:45:33;;;;;;;0.60;0.32;;;11.10;72.90;;;9.68;71.72;95631.50;5013997;28;20464;-72
2021/05/18 00:48:00;;;;;;;0.80;0.30;;;11.10;72.70;;;9.64;71.37;95633.72;5031421;28;20087;-72
2021/05/18 00:50:26;;;;;;;0.80;0.25;;;11.00;72.60;;;9.65;70.33;95637.97;4997379;28;20029;-72
2021/05/18 00:52:51;;;;;;;0.73;0.20;;;11.00;72.70;;;9.64;70.95;95644.22;5014125;28;20603;-72
2021/05/18 00:55:21;;;;;;;1.52;0.30;;;11.00;72.20;;;9.62;70.02;95648.84;5023730;28;20045;-72
2021/05/18 01:00:32;;;;;;;0.20;0.10;;;11.00;72.50;;;9.62;70.54;95640.97;5014541;28;20039;-72
2021/05/18 01:02:57;;;;;;;0.40;0.20;;;11.00;71.80;;;9.62;70.33;95633.09;5014322;28;20349;-72
2021/05/18 01:06:18;;;;;;;1.17;0.20;;;11.00;72.00;;;9.61;70.05;95626.22;5030332;28;20041;-72
2021/05/18 01:08:09;;;;;;;1.08;0.30;;;11.00;71.70;;;9.58;70.29;95634.50;5026117;28;20044;-72
2021/05/18 01:10:35;;;;;;;0.40;0.20;;;10.90;72.20;;;9.59;70.20;95649.25;5031183;28;20056;-72
2021/05/18 01:13:00;;;;;;;2.80;0.30;;;10.90;71.80;;;9.58;70.48;95650.25;5014769;28;20048;-72
2021/05/18 01:15:26;;;;;;;0.52;0.20;;;10.90;71.90;;;9.57;69.84;95646.00;5014124;28;20450;-72
2021/05/18 01:17:52;;;;;;;0.30;0.20;;;10.90;71.80;;;9.56;70.57;95649.63;5030020;28;20045;-72
2021/05/18 01:20:18;;;;;;;0.60;0.22;;;10.90;72.10;;;9.57;70.72;95653.06;5012499;28;20121;-72
2021/05/18 01:22:48;;;;;;;0.52;0.20;;;10.90;72.20;;;9.58;69.95;95660.75;5025064;28;20111;-72
2021/05/18 01:25:16;;;;;;;0.73;0.30;;;11.00;72.20;;;9.56;70.73;95656.72;5033047;28;20135;-72
2021/05/18 01:27:42;;;;;;;0.85;0.30;;;10.90;72.10;;;9.54;70.11;95659.53;5013826;28;20044;-72
2021/05/18 01:30:09;;;;;;;0.35;0.20;;;10.90;72.20;;;9.52;70.00;95657.09;4996229;28;20101;-72
2021/05/18 01:32:35;;;;;;;0.63;0.20;;;11.00;72.00;;;9.56;70.08;95657.50;5013751;28;20083;-72
2021/05/18 01:35:02;;;;;;;1.40;0.20;;;11.00;72.30;;;9.56;70.98;95652.25;5013239;28;20552;-73
2021/05/18 01:37:28;;;;;;;0.88;0.20;;;11.00;72.30;;;9.54;70.18;95651.66;5030061;28;20095;-72
2021/05/18 01:40:03;;;;;;;0.55;0.20;;;10.90;72.80;;;9.52;70.60;95662.34;5028541;28;20033;-72
2021/05/18 01:45:31;;;;;;;0.22;0.20;;;10.90;72.80;;;9.49;71.74;95667.16;5016029;28;20051;-72
2021/05/18 01:48:06;;;;;;;0.38;0.22;;;10.80;73.10;;;9.45;71.35;95665.91;5013913;28;20412;-72
2021/05/18 01:50:32;;;;;;;0.25;0.20;;;10.80;73.10;;;9.45;71.13;95673.78;5013530;28;20029;-72
2021/05/18 01:52:58;;;;;;;0.30;0.20;;;10.80;72.90;;;9.44;71.48;95674.78;5012741;28;20103;-72
2021/05/18 01:57:59;;;;;;;0.65;0.20;;;10.70;73.10;;;9.42;71.38;95672.34;5023536;28;20046;-72
2021/05/18 02:00:27;;;;;;;0.25;0.20;;;10.80;72.60;;;9.43;71.69;95673.97;5009351;28;20505;-71
2021/05/18 02:02:53;;;;;;;0.35;0.22;;;10.80;72.90;;;9.45;71.77;95684.28;5029521;28;20416;-73
2021/05/18 02:05:19;;;;;;;0.80;0.20;;;10.90;72.90;;;9.45;70.16;95681.66;5029133;28;20148;-72
2021/05/18 02:07:46;;;;;;;1.95;0.30;;;10.80;72.50;;;9.42;71.12;95676.81;5028412;28;20056;-72
2021/05/18 02:10:16;;;;;;;0.40;0.20;;;10.70;72.70;;;9.42;70.80;95677.59;4992442;28;20050;-72
2021/05/18 02:12:41;;;;;;;0.15;0.15;;;10.80;72.70;;;9.40;70.53;95681.44;4997118;28;20030;-72
2021/05/18 02:15:24;;;;;;;0.20;0.10;;;10.70;72.80;;;9.39;71.43;95677.19;5025587;28;20379;-72
2021/05/18 02:18:24;;;;;;;0.30;0.20;;;10.70;72.80;;;9.38;72.04;95680.81;4985270;28;20120;-72
2021/05/18 02:21:17;;;;;;;0.17;0.13;;;10.70;73.10;;;9.37;72.06;95684.44;5028186;28;20060;-72
2021/05/18 02:26:27;;;;;;;0.68;0.20;;;10.70;73.20;;;9.34;71.77;95690.88;5001117;28;20040;-72
2021/05/18 02:28:53;;;;;;;1.08;0.20;;;10.70;73.20;;;9.34;71.08;95687.47;5028286;28;20033;-72
2021/05/18 02:31:19;;;;;;;6.28;0.32;;;10.70;73.30;;;9.34;71.46;95684.84;5012511;28;20037;-72
2021/05/18 02:33:50;;;;;;;1.67;0.20;;;10.80;73.40;;;9.32;71.58;95681.59;5012642;28;20501;-72
2021/05/18 02:36:20;;;;;;;0.25;0.25;;;10.70;73.60;;;9.30;71.61;95688.84;5012381;28;20038;-72
2021/05/18 02:38:46;;;;;;;0.63;0.30;;;10.70;73.60;;;9.31;71.22;95687.84;4996727;28;20570;-71
2021/05/18 02:41:12;;;;;;;0.77;0.28;;;10.70;73.50;;;9.30;71.29;95700.16;5012215;28;20038;-71
2021/05/18 02:43:52;;;;;;;1.17;0.30;;;10.70;73.60;;;9.28;71.87;95696.06;4996203;28;20112;-71
2021/05/18 02:49:10;;;;;;;0.70;0.20;;;10.70;73.70;;;9.25;71.33;95696.44;5027600;28;20049;-71
2021/05/18 02:51:44;;;;;;;0.20;0.20;;;10.60;73.80;;;9.27;72.13;95694.44;5001073;28;20037;-72
2021/05/18 02:54:11;;;;;;;2.08;0.43;;;10.70;73.70;;;9.26;72.23;95693.63;5008247;28;20038;-71
2021/05/18 02:56:49;;;;;;;0.43;0.20;;;10.60;73.70;;;9.27;71.61;95704.94;5003228;28;20037;-71
2021/05/18 02:59:19;;;;;;;0.50;0.20;;;10.70;73.80;;;9.26;71.71;95700.69;5015548;28;20038;-71
2021/05/18 03:01:51;;;;;;;0.20;0.20;;;10.70;74.00;;;9.28;72.65;95699.53;5012793;28;20107;-71
2021/05/18 03:04:16;;;;;;;0.50;0.17;;;10.70;73.90;;;9.28;71.66;95707.41;5028167;28;20528;-72
2021/05/18 03:06:42;;;;;;;0.52;0.25;;;10.70;74.00;;;9.29;71.77;95713.47;5028002;28;20046;-72
2021/05/18 03:09:11;;;;;;;2.08;0.30;;;10.70;74.10;;;9.26;72.23;95709.38;5011344;28;20033;-72
2021/05/18 03:11:37;;;;;;;0.50;0.30;;;10.70;74.20;;;9.28;72.01;95709.19;5024142;28;20041;-71
2021/05/18 03:14:03;;;;;;;0.30;0.30;;;10.70;74.50;;;9.26;71.77;95703.31;4990473;28;20065;-71
2021/05/18 03:16:29;;;;;;;0.30;0.20;;;10.60;74.50;;;9.23;71.97;95703.72;5042460;28;20026;-72
2021/05/18 03:18:55;;;;;;;0.90;0.30;;;10.60;74.70;;;9.25;72.09;95712.19;5011860;28;20095;-71
2021/05/18 03:21:21;;;;;;;0.65;0.30;;;10.60;74.70;;;9.23;72.77;95717.63;4995281;28;20084;-72
2021/05/18 03:23:47;;;;;;;0.35;0.20;;;10.60;74.70;;;9.24;72.78;95715.81;5028586;28;20511;-72
2021/05/18 03:26:12;;;;;;;2.30;0.40;;;10.60;74.70;;;9.25;72.27;95712.19;4995070;28;20520;-71
2021/05/18 03:28:38;;;;;;;1.02;0.40;;;10.60;74.60;;;9.24;72.24;95710.59;4995334;28;20056;-72
2021/05/18 03:36:14;;;;;;;1.00;0.30;;;10.60;75.20;;;9.18;73.28;95712.97;5029484;28;20522;-70
2021/05/18 03:38:46;;;;;;;0.40;0.30;;;10.50;75.80;;;9.21;73.48;95709.97;5030948;28;20084;-72
2021/05/18 03:41:22;;;;;;;2.30;0.30;;;10.60;75.60;;;9.20;73.01;95710.97;5009085;28;20057;-68
2021/05/18 03:43:56;;;;;;;2.05;0.30;;;10.60;75.50;;;9.21;72.89;95715.22;5015361;28;20087;-69
2021/05/18 03:54:42;;;;;;;2.38;0.70;;;10.70;75.20;;;9.25;73.90;95730.56;5008529;28;20052;-65
2021/05/18 04:18:58;;;;;;;0.73;0.40;;;10.70;75.10;;;9.21;73.81;95733.56;5026326;28;20586;-73
2021/05/18 05:01:15;;;;;;;2.38;0.30;;;11.30;72.70;;;9.68;72.92;95770.69;5010961;28;20460;-67
2021/05/18 05:03:58;;;;;;;1.50;0.30;;;11.40;72.50;;;9.73;72.32;95769.13;5021955;28;20216;-65
2021/05/18 05:09:27;;;;;;;0.60;0.30;;;11.50;71.70;;;9.81;71.92;95766.34;5024901;28;20068;-74
2021/05/18 05:14:37;;;;;;;1.88;0.30;;;11.30;71.40;;;9.80;72.10;95780.50;5024769;28;20051;-70
2021/05/18 05:17:03;;;;;;;0.38;0.28;;;11.20;71.60;;;9.79;71.49;95789.38;5024785;28;20045;-71
2021/05/18 05:19:29;;;;;;;1.10;0.30;;;11.20;71.60;;;9.76;71.39;95787.13;5015938;28;20074;-71
2021/05/18 05:21:59;;;;;;;0.85;0.30;;;11.10;72.50;;;9.74;71.80;95789.16;5004006;28;20033;-72
2021/05/18 05:24:25;;;;;;;0.30;0.20;;;11.10;72.60;;;9.71;71.46;95789.50;4995684;28;20047;-70
2021/05/18 05:26:51;;;;;;;0.70;0.30;;;11.10;73.00;;;9.70;71.83;95785.25;5017164;28;20500;-74
2021/05/18 05:29:17;;;;;;;0.30;0.20;;;11.10;73.60;;;9.67;72.73;95793.50;5027875;28;20113;-74
2021/05/18 05:31:43;;;;;;;0.30;0.28;;;11.10;74.20;;;9.70;72.74;95798.38;5024183;28;20034;-73
2021/05/18 05:34:10;;;;;;;1.52;0.30;;;11.20;73.80;;;9.69;72.35;95799.38;5012768;28;20037;-72
2021/05/18 05:36:37;;;;;;;0.93;0.40;;;11.10;73.90;;;9.70;72.76;95806.25;5008022;28;20076;-72
2021/05/18 05:39:14;;;;;;;2.60;1.70;;;11.20;74.10;;;9.71;73.51;95805.25;5020091;28;20116;-73
2021/05/18 05:41:40;;;;;;;1.35;0.80;;;11.20;74.30;;;9.74;73.04;95804.91;5017108;28;20041;-70
2021/05/18 05:44:06;;;;;;;1.58;0.85;;;11.30;73.60;;;9.77;72.81;95808.97;5028466;28;20025;-70
2021/05/18 05:46:33;;;;;;;1.85;0.80;;;11.30;73.60;;;9.79;72.99;95814.81;5029397;28;20603;-71
2021/05/18 05:48:58;;;;;;;1.73;0.90;;;11.30;72.70;;;9.83;72.29;95816.06;4995115;28;20029;-70
2021/05/18 05:51:26;;;;;;;3.53;1.60;;;11.50;72.50;;;9.87;72.72;95816.50;5028282;28;20592;-72
2021/05/18 05:53:53;;;;;;;2.72;1.70;;;11.50;73.30;;;9.93;72.19;95818.34;5017596;28;20758;-72
2021/05/18 05:56:19;;;;;;;0.60;0.60;;;11.60;72.70;;;9.99;72.09;95820.22;5014013;28;20041;-71
2021/05/18 05:58:45;;;;;;;2.47;0.70;;;11.60;71.90;;;10.01;71.65;95821.66;5016124;28;20095;-70
2021/05/18 06:01:12;;;;;;;9.63;7.18;;;11.60;71.70;;;10.05;72.53;95816.81;5033427;28;20103;-69
2021/05/18 06:03:38;;;;;;;5.03;3.22;;;11.70;72.20;;;10.13;72.00;95819.28;5036913;28;20033;-71
2021/05/18 06:06:04;;;;;;;2.60;1.75;;;11.90;72.10;;;10.19;72.71;95825.63;5012058;28;20037;-69
2021/05/18 06:08:31;;;;;;;2.53;0.70;;;11.90;71.40;;;10.20;71.95;95828.06;5028982;28;20037;-67
2021/05/18 06:11:03;;;;;;;2.47;1.27;;;11.80;70.90;;;10.22;71.25;95830.50;5006403;28;20425;-65
2021/05/18 06:13:59;;;;;;;2.88;0.90;;;11.80;71.10;;;10.23;71.93;95830.31;4997339;28;20040;-70
2021/05/18 06:46:50;;;;;;;;;;;12.70;68.90;;;10.85;69.67;95866.22;5014520;28;20733;-63
2021/05/18 06:49:16;;;;;;;2.42;0.88;;;12.60;69.00;;;10.94;70.86;95862.44;5029415;28;19917;-69
2021/05/18 06:51:41;;;;;;;0.80;0.40;;;12.80;68.40;;;11.08;69.83;95844.03;5043266;28;20516;-71
2021/05/18 06:54:07;;;;;;;0.40;0.30;;;13.10;67.80;;;11.24;69.92;95859.47;5026746;28;20074;-72
2021/05/18 06:56:36;;;;;;;1.77;0.30;;;13.40;67.10;;;11.41;69.34;95859.94;5029505;28;20033;-71
2021/05/18 07:01:31;;;;;;;3.95;1.80;;;13.80;66.50;;;11.80;70.14;95867.94;5029317;28;20048;-70
2021/05/18 07:04:00;;;;;;;3.03;2.35;;;14.40;64.90;;;12.00;69.45;95862.66;5011227;28;20428;-65
2021/05/18 07:06:44;;;;;;;3.03;1.15;;;14.30;64.20;;;12.12;69.08;95862.84;5025986;28;20037;-64
2021/05/18 07:09:10;;;;;;;2.15;0.98;;;14.30;63.50;;;12.26;68.80;95867.91;5028985;28;20527;-63
2021/05/18 07:11:36;;;;;;;7.18;1.58;;;14.60;62.00;;;12.35;68.01;95862.41;5032283;28;20041;-73
2021/05/18 07:14:02;;;;;;;1.48;0.65;;;14.40;62.50;;;12.42;67.69;95860.56;5031488;28;20099;-64
2021/05/18 07:16:28;;;;;;;1.85;0.50;;;14.40;61.70;;;12.51;67.18;95865.44;5033044;28;20041;-63
2021/05/18 07:18:53;;;;;;;0.30;0.20;;;14.50;62.30;;;12.53;66.92;95862.59;5031675;28;20130;-64
2021/05/18 07:21:20;;;;;;;3.28;0.30;;;14.40;62.30;;;12.58;66.57;95868.84;5031777;28;20069;-65
2021/05/18 07:23:46;;;;;;;0.30;0.28;;;14.60;62.00;;;12.67;66.86;95858.88;5039848;28;20171;-72
2021/05/18 07:26:12;;;;;;;0.30;0.25;;;15.00;60.20;;;12.87;66.46;95859.63;5031870;28;20533;-69
2021/05/18 07:28:38;;;;;;;3.20;0.47;;;15.30;59.80;;;13.04;66.13;95862.59;5012010;28;20036;-70
2021/05/18 07:31:05;;;;;;;0.60;0.30;;;15.30;59.70;;;13.17;65.85;95867.88;4996045;28;20033;-70
2021/05/18 07:33:30;;;;;;;0.55;0.40;;;15.20;58.40;;;13.26;64.86;95857.88;5029436;28;20030;-65
2021/05/18 07:35:58;;;;;;;0.45;0.20;;;15.60;57.80;;;13.39;64.67;95852.53;5030190;28;20029;-70
2021/05/18 07:38:25;;;;;;;1.35;0.30;;;15.50;58.10;;;13.47;64.52;95860.19;5031553;28;20116;-65
2021/05/18 07:40:50;;;;;;;2.72;0.60;;;15.60;58.10;;;13.57;64.25;95862.34;5045265;28;20485;-64
2021/05/18 07:43:19;;;;;;;0.65;0.50;;;15.60;58.30;;;13.64;64.13;95849.91;5031632;28;20056;-72
2021/05/18 07:46:06;;;;;;;2.65;1.63;;;15.60;57.90;;;13.76;62.86;95858.75;5031552;28;20436;-64
2021/05/18 07:59:16;;;;;;;1.52;0.50;;;15.60;57.40;;;13.83;62.61;95853.44;5031733;28;20080;-68
2021/05/18 08:07:11;;;;;;;1.10;0.30;;;16.30;55.90;;;14.15;61.44;95845.44;5031807;28;20037;-64
2021/05/18 08:09:43;;;;;;;0.95;0.40;;;15.90;54.60;;;13.98;61.85;95846.00;5028739;28;20045;-72
2021/05/18 08:12:09;;;;;;;1.17;0.50;;;15.60;57.00;;;14.21;60.82;95844.56;5037326;28;20469;-70
2021/05/18 08:14:38;;;;;;;0.77;0.40;;;17.10;53.80;;;14.63;62.36;95838.47;5030417;28;20115;-66
2021/05/18 10:35:36;;;;;;;0.55;0.30;;;21.60;46.10;;;17.27;57.16;95851.28;5011063;28;20115;-67
2021/05/18 10:38:05;;;;;;;0.40;0.30;;;21.00;44.50;;;17.38;61.54;95847.78;5029320;28;20033;-63
2021/05/18 10:40:40;;;;;;;1.50;0.85;;;20.10;46.40;;;17.37;57.24;95843.50;5011582;28;20033;-65
2021/05/18 10:43:29;;;;;;;1.17;0.22;;;19.90;48.70;;;17.39;55.01;95846.72;5037046;28;20017;-65
2021/05/18 10:45:56;;;;;;;0.30;0.30;;;20.10;45.90;;;17.45;59.15;95845.78;5036719;28;20111;-64
2021/05/18 10:48:52;;;;;;;0.20;0.20;;;20.30;47.50;;;17.86;55.28;95844.66;5029091;28;20042;-65
2021/05/18 10:51:53;;;;;;;0.47;0.30;;;21.40;42.30;;;18.02;54.11;95845.72;5028223;28;20033;-65
2021/05/18 10:54:35;;;;;;;0.40;0.20;;;21.00;46.60;;;18.70;53.64;95836.66;5027425;28;20389;-66
2021/05/18 10:57:11;;;;;;;0.47;0.20;;;22.80;41.10;;;19.07;52.95;95833.38;5042255;28;20042;-66
2021/05/18 10:59:54;;;;;;;0.20;0.20;;;22.20;42.60;;;18.92;52.44;95832.13;5027621;28;20132;-66
2021/05/18 11:02:22;;;;;;;0.57;0.30;;;21.30;44.70;;;18.87;55.10;95837.41;5014472;28;20049;-68
2021/05/18 11:05:05;;;;;;;0.45;0.20;;;21.20;44.20;;;18.94;51.24;95827.38;5027732;28;20037;-65
2021/05/18 11:07:38;;;;;;;0.10;0.10;;;21.40;42.80;;;18.79;51.95;95832.53;5028196;28;20480;-67
2021/05/18 11:10:18;;;;;;;0.50;0.40;;;20.80;46.70;;;18.32;50.71;95840.88;5029053;28;20033;-66
2021/05/18 11:12:48;;;;;;;0.43;0.17;;;19.10;46.50;;;17.27;52.45;95857.41;5024795;28;20064;-70
2021/05/18 11:15:22;;;;;;;0.80;0.30;;;17.40;50.90;;;16.36;53.10;95866.88;5025679;28;20296;-69
2021/05/18 11:17:50;;;;;;;0.10;0.10;;;16.50;52.90;;;15.60;55.25;95863.16;5028239;28;20113;-69
2021/05/18 11:23:24;;;;;;;2.65;0.65;;;15.40;58.20;;;14.42;56.96;95878.56;5027764;28;20026;-68
2021/05/18 11:25:59;;;;;;;1.85;1.08;;;14.60;60.20;;;13.86;58.52;95868.06;5027617;28;20092;-69
2021/05/18 11:28:45;;;;;;;3.03;1.48;;;14.40;61.60;;;13.51;60.60;95870.31;5026900;28;20041;-68
2021/05/18 11:31:19;;;;;;;1.98;0.88;;;14.20;63.10;;;13.21;60.31;95864.81;5023848;28;20040;-66
2021/05/18 11:33:46;;;;;;;1.77;0.70;;;14.10;62.60;;;13.05;59.47;95866.88;5026200;28;20026;-65
2021/05/18 11:36:14;;;;;;;1.10;0.43;;;14.40;63.20;;;13.00;60.44;95857.97;5043826;28;20496;-65
2021/05/18 11:38:52;;;;;;;1.25;0.40;;;14.40;63.00;;;12.97;62.69;95853.09;5039692;28;20144;-68
2021/05/18 11:41:19;;;;;;;0.73;0.40;;;14.50;62.60;;;13.04;61.37;95851.25;5029078;28;20061;-70
2021/05/18 11:43:48;;;;;;;3.17;0.85;;;14.90;61.60;;;13.18;62.25;95844.91;5031464;28;20036;-65
2021/05/18 11:46:14;;;;;;;0.95;0.55;;;15.30;61.90;;;13.35;61.33;95840.75;5047177;28;20439;-65
2021/05/18 11:48:53;;;;;;;1.27;0.55;;;15.60;61.50;;;13.60;62.58;95832.06;4995392;28;20052;-66
2021/05/18 11:51:19;;;;;;;0.75;0.40;;;16.00;59.50;;;13.88;61.16;95829.00;5011306;28;20115;-66
2021/05/18 11:53:50;;;;;;;2.00;0.82;;;16.60;58.70;;;14.24;61.11;95828.25;5023846;28;20489;-65
2021/05/18 11:56:23;;;;;;;0.98;0.55;;;17.00;55.20;;;14.63;61.06;95827.88;5001039;28;20499;-67
2021/05/18 11:58:57;;;;;;;4.32;1.80;;;17.70;54.40;;;15.24;60.63;95824.31;5014629;28;20048;-71
2021/05/18 12:01:23;;;;;;;2.20;0.98;;;18.60;53.70;;;15.68;59.77;95827.59;5031540;28;20040;-70
2021/05/18 12:04:09;;;;;;;1.27;0.40;;;18.80;52.10;;;15.92;58.64;95826.59;5014220;28;20033;-68
2021/05/18 12:06:39;;;;;;;1.38;0.30;;;18.60;51.10;;;15.97;59.43;95827.75;5010771;28;20030;-67
2021/05/18 12:09:06;;;;;;;0.47;0.30;;;18.10;52.10;;;15.90;58.84;95823.34;5014680;28;20040;-65
2021/05/18 12:11:32;;;;;;;1.02;0.47;;;17.80;52.30;;;15.80;58.06;95825.75;5030945;28;20026;-68
2021/05/18 12:13:57;;;;;;;1.45;0.40;;;17.50;53.30;;;15.81;57.20;95827.34;5030578;28;20523;-67
2021/05/18 12:16:25;;;;;;;0.90;0.38;;;17.70;52.30;;;15.84;57.46;95824.28;5029924;28;20041;-68
2021/05/18 12:18:57;;;;;;;5.13;3.28;;;17.70;53.00;;;16.04;57.67;95820.47;5030827;28;20097;-69
2021/05/18 12:21:28;;;;;;;1.50;0.73;;;18.30;53.30;;;16.26;56.53;95820.72;5014178;28;20029;-65
2021/05/18 12:24:22;;;;;;;1.40;0.50;;;18.50;50.90;;;16.33;56.11;95819.56;5030862;28;20049;-70
2021/05/18 12:26:52;;;;;;;2.92;0.80;;;18.40;50.50;;;16.70;55.02;95814.00;5030277;28;20147;-69
2021/05/18 12:29:46;;;;;;;1.50;0.77;;;19.30;48.60;;;17.75;55.68;95824.28;5031019;28;20102;-70
2021/05/18 12:32:25;;;;;;;0.82;0.40;;;21.40;47.30;;;18.43;52.78;95819.72;5012206;28;20033;-72
2021/05/18 12:35:04;;;;;;;2.42;1.15;;;21.20;41.80;;;18.92;50.31;95813.47;5013236;28;20062;-67
2021/05/18 12:37:32;;;;;;;2.05;0.90;;;22.00;41.40;;;19.82;53.01;95812.06;5030481;28;20037;-67
2021/05/18 12:39:58;;;;;;;0.52;0.30;;;23.50;42.50;;;20.49;51.82;95816.03;5032076;28;20121;-72
2021/05/18 12:42:28;;;;;;;1.02;0.28;;;23.60;38.40;;;21.25;46.94;95813.75;4997716;28;20039;-67
2021/05/18 12:45:26;;;;;;;1.02;0.40;;;24.70;36.70;;;21.66;44.50;95809.28;5034716;28;20029;-67
2021/05/18 12:47:58;;;;;;;0.85;0.40;;;24.50;34.30;;;22.05;44.65;95799.97;5033729;28;20038;-71
2021/05/18 12:50:36;;;;;;;0.60;0.30;;;25.80;32.10;;;22.58;43.40;95799.34;5013501;28;20042;-71
2021/05/18 12:53:02;;;;;;;1.75;0.30;;;26.60;32.40;;;23.01;46.88;95796.31;5030996;28;20025;-66
2021/05/18 12:55:29;;;;;;;1.55;0.17;;;26.70;30.50;;;23.31;46.08;95806.09;4996928;28;20087;-70
2021/05/18 12:58:05;;;;;;;1.05;0.30;;;26.30;31.90;;;23.15;39.38;95800.81;5014176;28;20437;-72
2021/05/18 13:00:41;;;;;;;1.60;0.20;;;26.20;30.40;;;23.05;40.10;95792.00;5013532;28;20048;-67
2021/05/18 13:03:20;;;;;;;0.40;0.28;;;24.80;31.70;;;22.48;40.84;95788.66;5031332;28;20108;-70
2021/05/18 13:05:53;;;;;;;0.80;0.20;;;24.10;35.60;;;22.88;40.24;95790.47;5014344;28;20436;-67
2021/05/18 13:08:23;;;;;;;1.17;0.30;;;24.90;33.40;;;22.48;40.59;95794.03;5030408;28;20065;-68
2021/05/18 13:11:09;;;;;;;1.00;0.20;;;23.60;35.10;;;22.23;40.63;95786.03;5029806;28;20017;-67
2021/05/18 13:13:38;;;;;;;0.30;0.30;;;23.80;35.40;;;22.55;40.94;95789.19;5029287;28;20120;-71
2021/05/18 13:16:20;;;;;;;7.88;0.40;;;24.90;34.10;;;22.30;38.81;95779.31;5030119;28;20594;-66
2021/05/18 13:19:06;;;;;;;0.60;0.30;;;23.40;34.40;;;22.15;40.76;95778.53;5029883;28;20025;-73
2021/05/18 13:21:50;;;;;;;0.57;0.30;;;24.00;35.60;;;21.97;42.61;95769.97;5029507;28;20116;-71
2021/05/18 13:26:48;;;;;;;0.20;0.20;;;22.50;37.80;;;21.32;42.96;95766.16;5030077;28;20404;-70
2021/05/18 13:29:18;;;;;;;0.63;0.40;;;22.20;37.90;;;21.23;41.85;95761.53;5013451;28;20038;-67
2021/05/18 13:31:47;;;;;;;0.60;0.30;;;22.60;37.80;;;21.12;42.45;95747.34;5014776;28;20029;-68
2021/05/18 13:34:12;;;;;;;0.90;0.45;;;22.60;37.70;;;21.03;42.55;95741.69;5024087;28;20044;-69
2021/05/18 13:36:38;;;;;;;0.95;0.40;;;22.50;38.30;;;20.74;41.70;95754.72;5031613;28;20041;-68
2021/05/18 13:39:26;;;;;;;0.98;0.40;;;21.60;38.10;;;20.59;41.31;95751.16;5030257;28;20060;-71
2021/05/18 13:41:52;;;;;;;2.33;1.13;;;22.10;37.80;;;20.75;42.30;95750.97;5045797;28;20047;-74
2021/05/18 13:44:18;;;;;;;0.93;0.45;;;22.60;38.60;;;20.95;42.12;95750.25;5028921;28;20048;-68
2021/05/18 13:46:47;;;;;;;0.57;0.40;;;22.50;37.60;;;21.06;42.42;95745.75;5026574;28;20041;-70
2021/05/18 13:49:14;;;;;;;0.80;0.43;;;23.20;37.30;;;21.62;42.35;95743.19;5028909;28;20116;-71
2021/05/18 13:51:40;;;;;;;0.63;0.50;;;23.70;36.30;;;21.51;42.52;95736.22;5010362;28;20531;-68
2021/05/18 13:54:06;;;;;;;1.70;0.40;;;22.60;36.20;;;21.06;42.35;95743.06;5010987;28;20056;-68
2021/05/18 13:56:33;;;;;;;3.22;0.65;;;22.00;39.10;;;20.59;42.23;95762.66;5044786;28;20040;-69
2021/05/18 13:58:59;;;;;;;0.43;0.30;;;21.30;40.40;;;19.97;43.10;95774.00;4995845;28;20136;-67
2021/05/18 14:01:25;;;;;;;2.42;0.25;;;20.10;43.10;;;19.28;43.75;95773.91;5029202;28;20033;-67
2021/05/18 14:03:50;;;;;;;0.70;0.30;;;19.60;42.90;;;19.01;43.34;95770.38;5025536;28;20041;-68
2021/05/18 14:06:16;;;;;;;0.40;0.30;;;19.60;41.10;;;19.38;42.33;95768.66;5013672;28;20033;-67
2021/05/18 14:08:43;;;;;;;0.40;0.38;;;20.30;38.60;;;19.58;43.22;95776.88;5011328;28;20508;-67
2021/05/18 14:11:09;;;;;;;0.63;0.20;;;20.60;39.60;;;19.73;43.74;95786.91;5029325;28;20420;-68
2021/05/18 14:13:37;;;;;;;1.98;0.20;;;20.50;40.20;;;19.79;42.58;95782.41;5028506;28;20033;-67
2021/05/18 14:16:04;;;;;;;2.30;0.22;;;20.50;39.90;;;20.04;43.17;95795.94;5022720;28;20053;-69
2021/05/18 14:18:31;;;;;;;1.95;0.22;;;20.90;38.90;;;19.76;42.75;95793.59;5012232;28;20440;-70
2021/05/18 14:20:57;;;;;;;0.30;0.20;;;20.10;40.10;;;19.27;43.03;95793.63;5011747;28;20038;-69
2021/05/18 14:23:25;;;;;;;0.35;0.20;;;19.50;41.00;;;18.95;43.41;95793.53;5026993;28;20048;-68
2021/05/18 14:25:53;;;;;;;0.32;0.20;;;19.40;42.10;;;18.70;43.47;95799.34;5016139;28;20108;-69
2021/05/18 14:28:20;;;;;;;1.65;0.20;;;19.50;42.40;;;18.56;43.94;95798.09;5012073;28;20033;-69
2021/05/18 14:30:46;;;;;;;1.15;0.20;;;19.40;42.40;;;18.67;43.31;95795.31;5028757;28;20481;-68
2021/05/18 14:33:12;;;;;;;0.50;0.20;;;19.30;42.00;;;18.90;44.08;95788.13;5012199;28;20513;-68
2021/05/18 14:35:38;;;;;;;0.10;0.10;;;19.80;42.60;;;19.05;43.73;95784.84;5012116;28;20103;-69
2021/05/18 14:38:18;;;;;;;0.15;0.13;;;19.60;41.50;;;19.01;43.76;95789.88;5027873;28;20049;-68
2021/05/18 14:46:42;;;;;;;1.08;0.20;;;19.00;43.10;;;18.19;44.44;95782.66;5008796;28;20038;-67
2021/05/18 14:57:07;;;;;;;1.33;0.25;;;18.40;43.70;;;17.54;44.40;95764.56;5029720;28;20045;-67
2021/05/18 14:59:33;;;;;;;0.10;0.10;;;18.60;43.90;;;17.31;44.46;95760.19;4996796;28;20034;-67
2021/05/18 15:01:59;;;;;;;1.77;0.20;;;18.20;43.70;;;17.11;45.04;95765.13;5015870;28;20033;-67
2021/05/18 15:04:25;;;;;;;0.35;0.30;;;18.10;44.40;;;16.96;45.25;95762.19;5031618;28;20041;-68
2021/05/18 15:06:51;;;;;;;0.25;0.20;;;17.90;45.30;;;16.85;45.84;95777.13;5016273;28;20029;-67
2021/05/18 15:09:16;;;;;;;2.88;0.98;;;17.90;45.50;;;16.71;46.02;95770.47;5016133;28;20044;-67
2021/05/18 15:11:42;;;;;;;0.45;0.20;;;17.60;46.00;;;16.62;45.87;95766.53;5031953;28;20033;-68
2021/05/18 15:14:08;;;;;;;0.57;0.25;;;17.60;46.60;;;16.59;46.72;95759.06;5000746;28;20145;-69
2021/05/18 15:16:34;;;;;;;0.17;0.17;;;17.70;46.50;;;16.51;46.64;95755.69;5038869;28;20033;-70
2021/05/18 15:19:18;;;;;;;0.47;0.20;;;17.70;46.00;;;16.43;47.27;95755.25;5018857;28;20112;-70
2021/05/18 15:21:44;;;;;;;1.25;0.22;;;17.70;46.70;;;16.25;46.27;95756.22;5031418;28;20030;-70
2021/05/18 15:24:10;;;;;;;0.40;0.30;;;17.10;46.80;;;16.09;46.52;95746.31;5027083;28;20048;-69
2021/05/18 15:26:36;;;;;;;0.40;0.22;;;17.10;46.60;;;16.02;46.53;95746.41;5028425;28;20500;-70
2021/05/18 15:29:04;;;;;;;1.75;0.20;;;17.20;47.80;;;16.02;47.39;95740.31;5028412;28;20033;-70
2021/05/18 15:31:29;;;;;;;0.28;0.10;;;17.20;48.40;;;16.01;47.15;95723.59;5029861;28;20123;-70
2021/05/18 15:33:55;;;;;;;0.40;0.25;;;17.30;48.60;;;16.01;48.62;95730.72;5014389;28;20037;-70
2021/05/18 15:36:21;;;;;;;0.65;0.20;;;17.40;50.00;;;16.02;47.90;95735.81;5030965;28;20034;-70
2021/05/18 15:38:47;;;;;;;0.63;0.20;;;17.50;45.60;;;15.99;47.87;95724.84;5031392;28;20048;-69